Time,TemperatureF,DewpointF,PressureIn,WindDirection,WindDirectionDegrees,WindSpeedMPH,WindSpeedGustMPH,Humidity,HourlyPrecipIn,Conditions,Clouds,dailyrainin,SoftwareType,DateUTC
2015-07-03 00:02:00,56.6,49.8,29.18,North,-9999,-999.9,0.0,78,0.00,,,0.00,WUHU216HW,2015-07-03 05:02:00,
2015-07-03 00:07:00,56.4,49.6,29.18,North,-9999,-999.9,0.0,78,0.00,,,0.00,WUHU216HW,2015-07-03 05:07:00,
2015-07-03 00:12:00,56.3,49.4,29.18,North,-9999,-999.9,0.0,78,0.00,,,0.00,WUHU216HW,2015-07-03 05:12:00,
2015-07-03 00:17:00,55.9,49.1,29.18,North,-9999,-999.9,0.0,78,0.00,,,0.00,WUHU216HW,2015-07-03 05:17:00,
2015-07-03 00:22:00,55.7,49.2,29.18,North,-9999,-999.9,0.0,79,0.00,,,0.00,WUHU216HW,2015-07-03 05:22:00,
2015-07-03 00:27:00,55.7,49.2,29.17,North,-9999,-999.9,0.0,79,0.00,,,0.00,WUHU216HW,2015-07-03 05:27:00,
2015-07-03 00:32:00,55.5,49.1,29.17,North,-9999,-999.9,0.0,79,0.00,,,0.00,WUHU216HW,2015-07-03 05:32:00,
2015-07-03 00:37:00,55.5,49.1,29.17,North,-9999,-999.9,0.0,79,0.00,,,0.00,WUHU216HW,2015-07-03 05:37:00,
2015-07-03 00:43:00,55.4,48.9,29.17,North,-9999,-999.9,0.0,79,0.00,,,0.00,WUHU216HW,2015-07-03 05:43:00,
2015-07-03 00:48:00,55.2,48.7,29.17,North,-9999,-999.9,0.0,79,0.00,,,0.00,WUHU216HW,2015-07-03 05:48:00,
2015-07-03 00:53:00,55.2,48.7,29.17,North,-9999,-999.9,0.0,79,0.00,,,0.00,WUHU216HW,2015-07-03 05:53:00,
2015-07-03 00:58:00,55.0,48.9,29.17,North,-9999,-999.9,0.0,80,0.00,,,0.00,WUHU216HW,2015-07-03 05:58:00,
2015-07-03 01:03:00,54.8,48.7,29.17,North,-9999,-999.9,0.0,80,0.00,,,0.00,WUHU216HW,2015-07-03 06:03:00,
2015-07-03 01:08:00,54.5,48.4,29.17,North,-9999,-999.9,0.0,80,0.00,,,0.00,WUHU216HW,2015-07-03 06:08:00,
2015-07-03 01:13:00,54.3,48.3,29.17,North,-9999,-999.9,0.0,80,0.00,,,0.00,WUHU216HW,2015-07-03 06:13:00,
2015-07-03 01:18:00,54.3,48.3,29.17,North,-9999,-999.9,0.0,80,0.00,,,0.00,WUHU216HW,2015-07-03 06:18:00,
2015-07-03 01:23:00,54.1,48.1,29.17,North,-9999,-999.9,0.0,80,0.00,,,0.00,WUHU216HW,2015-07-03 06:23:00,
2015-07-03 01:28:00,54.1,48.1,29.17,North,-9999,-999.9,0.0,80,0.00,,,0.00,WUHU216HW,2015-07-03 06:28:00,
2015-07-03 01:33:00,54.1,48.4,29.18,North,-9999,-999.9,0.0,81,0.00,,,0.00,WUHU216HW,2015-07-03 06:33:00,
2015-07-03 01:38:00,54.1,48.4,29.17,North,-9999,-999.9,0.0,81,0.00,,,0.00,WUHU216HW,2015-07-03 06:38:00,
2015-07-03 01:43:00,54.1,48.4,29.17,North,-9999,-999.9,0.0,81,0.00,,,0.00,WUHU216HW,2015-07-03 06:43:00,
2015-07-03 01:48:00,53.9,47.9,29.17,North,-9999,-999.9,0.0,80,0.00,,,0.00,WUHU216HW,2015-07-03 06:48:00,
2015-07-03 01:53:00,53.9,47.9,29.17,North,-9999,-999.9,0.0,80,0.00,,,0.00,WUHU216HW,2015-07-03 06:53:00,
2015-07-03 01:58:00,53.7,47.8,29.17,North,-9999,-999.9,0.0,80,0.00,,,0.00,WUHU216HW,2015-07-03 06:58:00,
2015-07-03 02:03:00,53.6,47.7,29.17,North,-9999,-999.9,0.0,81,0.00,,,0.00,WUHU216HW,2015-07-03 07:03:00,
2015-07-03 02:09:00,53.4,47.7,29.17,North,-9999,-999.9,0.0,81,0.00,,,0.00,WUHU216HW,2015-07-03 07:09:00,
2015-07-03 02:14:00,53.2,47.6,29.17,North,-9999,-999.9,0.0,81,0.00,,,0.00,WUHU216HW,2015-07-03 07:14:00,
2015-07-03 02:19:00,53.2,47.6,29.18,North,-9999,-999.9,0.0,81,0.00,,,0.00,WUHU216HW,2015-07-03 07:19:00,
2015-07-03 02:24:00,52.8,47.2,29.17,North,-9999,-999.9,0.0,81,0.00,,,0.00,WUHU216HW,2015-07-03 07:24:00,
2015-07-03 02:29:00,52.7,47.0,29.17,North,-9999,-999.9,0.0,81,0.00,,,0.00,WUHU216HW,2015-07-03 07:29:00,
2015-07-03 02:34:00,52.7,47.3,29.17,North,-9999,-999.9,0.0,82,0.00,,,0.00,WUHU216HW,2015-07-03 07:34:00,
2015-07-03 02:39:00,52.5,46.8,29.18,North,-9999,-999.9,0.0,81,0.00,,,0.00,WUHU216HW,2015-07-03 07:39:00,
2015-07-03 02:44:00,52.7,47.0,29.17,North,-9999,-999.9,0.0,81,0.00,,,0.00,WUHU216HW,2015-07-03 07:44:00,
2015-07-03 02:49:00,52.5,46.8,29.17,North,-9999,-999.9,0.0,81,0.00,,,0.00,WUHU216HW,2015-07-03 07:49:00,
2015-07-03 02:54:00,52.5,46.8,29.17,North,-9999,-999.9,0.0,81,0.00,,,0.00,WUHU216HW,2015-07-03 07:54:00,
2015-07-03 02:59:00,52.5,46.8,29.17,North,-9999,-999.9,0.0,81,0.00,,,0.00,WUHU216HW,2015-07-03 07:59:00,
2015-07-03 03:04:00,52.3,46.7,29.17,North,-9999,-999.9,0.0,81,0.00,,,0.00,WUHU216HW,2015-07-03 08:04:00,
2015-07-03 03:09:00,52.1,46.5,29.17,North,-9999,-999.9,0.0,81,0.00,,,0.00,WUHU216HW,2015-07-03 08:09:00,
2015-07-03 03:14:00,52.1,46.8,29.17,North,-9999,-999.9,0.0,82,0.00,,,0.00,WUHU216HW,2015-07-03 08:14:00,
2015-07-03 03:19:00,51.9,46.8,29.17,North,-9999,-999.9,0.0,82,0.00,,,0.00,WUHU216HW,2015-07-03 08:19:00,
2015-07-03 03:24:00,51.9,46.6,29.16,North,-9999,-999.9,0.0,82,0.00,,,0.00,WUHU216HW,2015-07-03 08:24:00,
2015-07-03 03:30:00,51.9,46.6,29.17,North,-9999,-999.9,0.0,82,0.00,,,0.00,WUHU216HW,2015-07-03 08:30:00,
2015-07-03 03:35:00,51.9,46.6,29.17,North,-9999,-999.9,0.0,82,0.00,,,0.00,WUHU216HW,2015-07-03 08:35:00,
2015-07-03 03:40:00,51.8,46.4,29.17,North,-9999,-999.9,0.0,82,0.00,,,0.00,WUHU216HW,2015-07-03 08:40:00,
2015-07-03 03:45:00,51.6,46.2,29.16,North,-9999,-999.9,0.0,82,0.00,,,0.00,WUHU216HW,2015-07-03 08:45:00,
2015-07-03 03:50:00,51.6,46.2,29.17,North,-9999,-999.9,0.0,82,0.00,,,0.00,WUHU216HW,2015-07-03 08:50:00,
2015-07-03 03:55:00,51.4,46.1,29.17,North,-9999,-999.9,0.0,82,0.00,,,0.00,WUHU216HW,2015-07-03 08:55:00,
2015-07-03 04:00:00,51.4,46.1,29.17,North,-9999,-999.9,0.0,82,0.00,,,0.00,WUHU216HW,2015-07-03 09:00:00,
2015-07-03 04:05:00,51.4,46.1,29.17,North,-9999,-999.9,0.0,82,0.00,,,0.00,WUHU216HW,2015-07-03 09:05:00,
2015-07-03 04:10:00,51.4,46.1,29.17,North,-9999,-999.9,0.0,82,0.00,,,0.00,WUHU216HW,2015-07-03 09:10:00,
2015-07-03 04:15:00,51.4,46.1,29.17,North,-9999,-999.9,0.0,82,0.00,,,0.00,WUHU216HW,2015-07-03 09:15:00,
2015-07-03 04:20:00,51.4,46.1,29.17,North,-9999,-999.9,0.0,82,0.00,,,0.00,WUHU216HW,2015-07-03 09:20:00,
2015-07-03 04:25:00,51.4,46.1,29.17,North,-9999,-999.9,0.0,82,0.00,,,0.00,WUHU216HW,2015-07-03 09:25:00,
2015-07-03 04:30:00,51.4,46.1,29.17,North,-9999,-999.9,0.0,82,0.00,,,0.00,WUHU216HW,2015-07-03 09:30:00,
2015-07-03 04:35:00,51.2,45.9,29.17,North,-9999,-999.9,0.0,82,0.00,,,0.00,WUHU216HW,2015-07-03 09:35:00,
2015-07-03 04:40:00,51.0,45.7,29.17,North,-9999,-999.9,0.0,82,0.00,,,0.00,WUHU216HW,2015-07-03 09:40:00,
2015-07-03 04:45:00,51.0,45.7,29.17,North,-9999,-999.9,0.0,82,0.00,,,0.00,WUHU216HW,2015-07-03 09:45:00,
2015-07-03 04:50:00,51.0,45.7,29.17,North,-9999,-999.9,0.0,82,0.00,,,0.00,WUHU216HW,2015-07-03 09:50:00,
2015-07-03 04:55:00,51.0,45.7,29.17,North,-9999,-999.9,0.0,82,0.00,,,0.00,WUHU216HW,2015-07-03 09:55:00,
2015-07-03 05:00:00,50.9,45.5,29.17,North,-9999,-999.9,0.0,82,0.00,,,0.00,WUHU216HW,2015-07-03 10:00:00,
2015-07-03 05:05:00,50.9,45.5,29.17,North,-9999,-999.9,0.0,82,0.00,,,0.00,WUHU216HW,2015-07-03 10:05:00,
2015-07-03 05:10:00,50.9,45.5,29.17,North,-9999,-999.9,0.0,82,0.00,,,0.00,WUHU216HW,2015-07-03 10:10:00,
2015-07-03 05:15:00,51.0,45.7,29.17,North,-9999,-999.9,0.0,82,0.00,,,0.00,WUHU216HW,2015-07-03 10:15:00,
2015-07-03 05:20:00,51.0,46.0,29.17,North,-9999,-999.9,0.0,83,0.00,,,0.00,WUHU216HW,2015-07-03 10:20:00,
2015-07-03 05:25:00,51.0,46.0,29.16,North,-9999,-999.9,0.0,83,0.00,,,0.00,WUHU216HW,2015-07-03 10:25:00,
2015-07-03 05:30:00,51.0,46.0,29.17,North,-9999,-999.9,0.0,83,0.00,,,0.00,WUHU216HW,2015-07-03 10:30:00,
2015-07-03 05:35:00,51.0,46.0,29.17,North,-9999,-999.9,0.0,83,0.00,,,0.00,WUHU216HW,2015-07-03 10:35:00,
2015-07-03 05:40:00,50.9,45.8,29.17,North,-9999,-999.9,0.0,83,0.00,,,0.00,WUHU216HW,2015-07-03 10:40:00,
2015-07-03 05:45:00,50.9,45.8,29.17,North,-9999,-999.9,0.0,83,0.00,,,0.00,WUHU216HW,2015-07-03 10:45:00,
2015-07-03 05:50:00,50.9,45.8,29.17,North,-9999,-999.9,0.0,83,0.00,,,0.00,WUHU216HW,2015-07-03 10:50:00,
2015-07-03 05:55:00,50.9,45.8,29.17,North,-9999,-999.9,0.0,83,0.00,,,0.00,WUHU216HW,2015-07-03 10:55:00,
2015-07-03 06:01:00,51.2,46.2,29.17,North,-9999,-999.9,0.0,83,0.00,,,0.00,WUHU216HW,2015-07-03 11:01:00,
2015-07-03 06:06:00,51.4,46.4,29.17,North,-9999,-999.9,0.0,83,0.00,,,0.00,WUHU216HW,2015-07-03 11:06:00,
2015-07-03 06:11:00,51.6,46.5,29.17,North,-9999,-999.9,0.0,83,0.00,,,0.00,WUHU216HW,2015-07-03 11:11:00,
2015-07-03 06:16:00,51.6,46.5,29.17,North,-9999,-999.9,0.0,83,0.00,,,0.00,WUHU216HW,2015-07-03 11:16:00,
2015-07-03 06:21:00,51.6,46.5,29.17,North,-9999,-999.9,0.0,83,0.00,,,0.00,WUHU216HW,2015-07-03 11:21:00,
2015-07-03 06:26:00,51.9,46.9,29.17,North,-9999,-999.9,0.0,83,0.00,,,0.00,WUHU216HW,2015-07-03 11:26:00,
2015-07-03 06:31:00,52.1,47.1,29.17,North,-9999,-999.9,0.0,83,0.00,,,0.00,WUHU216HW,2015-07-03 11:31:00,
2015-07-03 06:36:00,52.3,47.3,29.17,North,-9999,-999.9,0.0,83,0.00,,,0.00,WUHU216HW,2015-07-03 11:36:00,
2015-07-03 06:41:00,52.5,47.4,29.17,North,-9999,-999.9,0.0,83,0.00,,,0.00,WUHU216HW,2015-07-03 11:41:00,
2015-07-03 06:46:00,52.8,47.8,29.18,North,-9999,-999.9,0.0,83,0.00,,,0.00,WUHU216HW,2015-07-03 11:46:00,
2015-07-03 06:51:00,53.2,48.2,29.18,North,-9999,-999.9,0.0,83,0.00,,,0.00,WUHU216HW,2015-07-03 11:51:00,
2015-07-03 06:56:00,53.4,48.7,29.18,North,-9999,-999.9,0.0,84,0.00,,,0.00,WUHU216HW,2015-07-03 11:56:00,
2015-07-03 07:01:00,53.7,49.0,29.18,North,-9999,-999.9,0.0,84,0.00,,,0.00,WUHU216HW,2015-07-03 12:01:00,
2015-07-03 07:06:00,54.1,49.0,29.18,North,-9999,-999.9,0.0,83,0.00,,,0.00,WUHU216HW,2015-07-03 12:06:00,
2015-07-03 07:11:00,54.3,49.2,29.18,North,-9999,-999.9,0.0,83,0.00,,,0.00,WUHU216HW,2015-07-03 12:11:00,
2015-07-03 07:16:00,54.6,49.5,29.18,North,-9999,-999.9,0.0,83,0.00,,,0.00,WUHU216HW,2015-07-03 12:16:00,
2015-07-03 07:22:00,55.0,49.9,29.17,North,-9999,-999.9,0.0,83,0.00,,,0.00,WUHU216HW,2015-07-03 12:22:00,
2015-07-03 07:27:00,55.2,50.0,29.18,North,-9999,-999.9,0.0,83,0.00,,,0.00,WUHU216HW,2015-07-03 12:27:00,
2015-07-03 07:32:00,55.9,50.7,29.17,North,-9999,-999.9,0.0,83,0.00,,,0.00,WUHU216HW,2015-07-03 12:32:00,
2015-07-03 07:37:00,56.3,51.1,29.17,North,-9999,-999.9,0.0,83,0.00,,,0.00,WUHU216HW,2015-07-03 12:37:00,
2015-07-03 07:42:00,56.6,51.5,29.17,North,-9999,-999.9,0.0,83,0.00,,,0.00,WUHU216HW,2015-07-03 12:42:00,
2015-07-03 07:47:00,57.0,51.8,29.18,North,-9999,-999.9,0.0,83,0.00,,,0.00,WUHU216HW,2015-07-03 12:47:00,
2015-07-03 07:52:00,57.3,52.2,29.17,North,-9999,-999.9,0.0,83,0.00,,,0.00,WUHU216HW,2015-07-03 12:52:00,
2015-07-03 07:57:00,57.9,52.7,29.17,North,-9999,-999.9,0.0,83,0.00,,,0.00,WUHU216HW,2015-07-03 12:57:00,
2015-07-03 08:02:00,58.1,52.9,29.17,North,-9999,-999.9,0.0,83,0.00,,,0.00,WUHU216HW,2015-07-03 13:02:00,
2015-07-03 08:07:00,58.8,53.6,29.17,North,-9999,-999.9,0.0,83,0.00,,,0.00,WUHU216HW,2015-07-03 13:07:00,
2015-07-03 08:12:00,59.3,54.2,29.17,North,-9999,-999.9,0.0,83,0.00,,,0.00,WUHU216HW,2015-07-03 13:12:00,
2015-07-03 08:17:00,59.9,54.4,29.17,North,-9999,-999.9,0.0,82,0.00,,,0.00,WUHU216HW,2015-07-03 13:17:00,
2015-07-03 08:22:00,60.4,54.9,29.17,North,-9999,-999.9,0.0,82,0.00,,,0.00,WUHU216HW,2015-07-03 13:22:00,
2015-07-03 08:27:00,60.6,55.1,29.17,North,-9999,-999.9,0.0,82,0.00,,,0.00,WUHU216HW,2015-07-03 13:27:00,
2015-07-03 08:32:00,61.5,55.9,29.17,North,-9999,-999.9,0.0,82,0.00,,,0.00,WUHU216HW,2015-07-03 13:32:00,
2015-07-03 08:37:00,61.8,55.9,29.17,North,-9999,-999.9,0.0,81,0.00,,,0.00,WUHU216HW,2015-07-03 13:37:00,
2015-07-03 08:42:00,62.4,56.4,29.17,North,-9999,-999.9,0.0,81,0.00,,,0.00,WUHU216HW,2015-07-03 13:42:00,
2015-07-03 08:47:00,62.7,57.1,29.16,North,-9999,-999.9,0.0,81,0.00,,,0.00,WUHU216HW,2015-07-03 13:47:00,
2015-07-03 08:52:00,63.3,57.3,29.16,North,-9999,-999.9,0.0,81,0.00,,,0.00,WUHU216HW,2015-07-03 13:52:00,
2015-07-03 08:57:00,63.6,57.7,29.16,North,-9999,-999.9,0.0,81,0.00,,,0.00,WUHU216HW,2015-07-03 13:57:00,
2015-07-03 09:02:00,64.2,57.9,29.16,North,-9999,-999.9,0.0,80,0.00,,,0.00,WUHU216HW,2015-07-03 14:02:00,
2015-07-03 09:07:00,64.5,58.2,29.16,North,-9999,-999.9,0.0,80,0.00,,,0.00,WUHU216HW,2015-07-03 14:07:00,
2015-07-03 09:12:00,64.7,58.0,29.16,North,-9999,-999.9,0.0,79,0.00,,,0.00,WUHU216HW,2015-07-03 14:12:00,
2015-07-03 09:17:00,65.3,58.4,29.16,North,-9999,-999.9,0.0,79,0.00,,,0.00,WUHU216HW,2015-07-03 14:17:00,
2015-07-03 09:22:00,65.8,58.7,29.16,North,-9999,-999.9,0.0,78,0.00,,,0.00,WUHU216HW,2015-07-03 14:22:00,
2015-07-03 09:27:00,66.0,58.9,29.16,North,-9999,-999.9,0.0,78,0.00,,,0.00,WUHU216HW,2015-07-03 14:27:00,
2015-07-03 09:32:00,66.3,58.9,29.16,North,-9999,-999.9,0.0,77,0.00,,,0.00,WUHU216HW,2015-07-03 14:32:00,
2015-07-03 09:37:00,66.7,59.3,29.16,North,-9999,-999.9,0.0,77,0.00,,,0.00,WUHU216HW,2015-07-03 14:37:00,
2015-07-03 09:42:00,66.9,59.1,29.16,North,-9999,-999.9,0.0,76,0.00,,,0.00,WUHU216HW,2015-07-03 14:42:00,
2015-07-03 09:47:00,67.6,59.8,29.16,North,-9999,-999.9,0.0,76,0.00,,,0.00,WUHU216HW,2015-07-03 14:47:00,
2015-07-03 09:52:00,67.6,59.8,29.16,North,-9999,-999.9,0.0,76,0.00,,,0.00,WUHU216HW,2015-07-03 14:52:00,
2015-07-03 09:57:00,68.3,60.3,29.16,North,-9999,-999.9,0.0,76,0.00,,,0.00,WUHU216HW,2015-07-03 14:57:00,
2015-07-03 10:02:00,68.7,60.0,29.16,North,-9999,-999.9,0.0,74,0.00,,,0.00,WUHU216HW,2015-07-03 15:02:00,
2015-07-03 10:07:00,69.0,60.4,29.16,North,-9999,-999.9,0.0,74,0.00,,,0.00,WUHU216HW,2015-07-03 15:07:00,
2015-07-03 10:12:00,69.4,60.7,29.15,North,-9999,-999.9,0.0,74,0.00,,,0.00,WUHU216HW,2015-07-03 15:12:00,
2015-07-03 10:18:00,69.8,61.0,29.15,North,-9999,-999.9,0.0,74,0.00,,,0.00,WUHU216HW,2015-07-03 15:18:00,
2015-07-03 10:23:00,69.8,61.0,29.15,North,-9999,-999.9,0.0,74,0.00,,,0.00,WUHU216HW,2015-07-03 15:23:00,
2015-07-03 10:28:00,70.7,61.1,29.14,North,-9999,-999.9,0.0,72,0.00,,,0.00,WUHU216HW,2015-07-03 15:28:00,
2015-07-03 10:33:00,70.8,61.3,29.14,North,-9999,-999.9,0.0,72,0.00,,,0.00,WUHU216HW,2015-07-03 15:33:00,
2015-07-03 10:38:00,71.4,61.5,29.14,North,-9999,-999.9,0.0,71,0.00,,,0.00,WUHU216HW,2015-07-03 15:38:00,
2015-07-03 10:43:00,71.4,61.5,29.14,North,-9999,-999.9,0.0,71,0.00,,,0.00,WUHU216HW,2015-07-03 15:43:00,
2015-07-03 10:48:00,71.4,61.5,29.14,North,-9999,-999.9,0.0,71,0.00,,,0.00,WUHU216HW,2015-07-03 15:48:00,
2015-07-03 10:53:00,71.4,61.5,29.14,North,-9999,-999.9,0.0,71,0.00,,,0.00,WUHU216HW,2015-07-03 15:53:00,
2015-07-03 10:58:00,72.3,61.6,29.14,North,-9999,-999.9,0.0,69,0.00,,,0.00,WUHU216HW,2015-07-03 15:58:00,
2015-07-03 11:03:00,72.3,61.6,29.14,North,-9999,-999.9,0.0,69,0.00,,,0.00,WUHU216HW,2015-07-03 16:03:00,
2015-07-03 11:08:00,72.8,61.7,29.14,North,-9999,-999.9,0.0,68,0.00,,,0.00,WUHU216HW,2015-07-03 16:08:00,
2015-07-03 11:13:00,73.0,61.8,29.14,North,-9999,-999.9,0.0,68,0.00,,,0.00,WUHU216HW,2015-07-03 16:13:00,
2015-07-03 11:18:00,73.0,61.8,29.14,North,-9999,-999.9,0.0,68,0.00,,,0.00,WUHU216HW,2015-07-03 16:18:00,
2015-07-03 11:23:00,73.0,61.8,29.14,North,-9999,-999.9,0.0,68,0.00,,,0.00,WUHU216HW,2015-07-03 16:23:00,
2015-07-03 11:28:00,73.0,61.8,29.14,North,-9999,-999.9,0.0,68,0.00,,,0.00,WUHU216HW,2015-07-03 16:28:00,
2015-07-03 11:33:00,73.0,61.8,29.14,North,-9999,-999.9,0.0,68,0.00,,,0.00,WUHU216HW,2015-07-03 16:33:00,
2015-07-03 11:38:00,73.0,61.8,29.14,North,-9999,-999.9,0.0,68,0.00,,,0.00,WUHU216HW,2015-07-03 16:38:00,
2015-07-03 12:04:00,75.5,62.4,29.14,North,-9999,-999.9,0.0,64,0.00,,,0.00,WUHU216HW,2015-07-03 17:04:00,
2015-07-03 12:09:00,75.5,62.4,29.14,North,-9999,-999.9,0.0,64,0.00,,,0.00,WUHU216HW,2015-07-03 17:09:00,
2015-07-03 12:14:00,75.5,62.4,29.13,North,-9999,-999.9,0.0,64,0.00,,,0.00,WUHU216HW,2015-07-03 17:14:00,
2015-07-03 12:19:00,75.5,62.4,29.13,North,-9999,-999.9,0.0,64,0.00,,,0.00,WUHU216HW,2015-07-03 17:19:00,
2015-07-03 12:24:00,75.5,62.4,29.13,North,-9999,-999.9,0.0,64,0.00,,,0.00,WUHU216HW,2015-07-03 17:24:00,
2015-07-03 12:29:00,77.0,63.4,29.13,North,-9999,-999.9,0.0,63,0.00,,,0.00,WUHU216HW,2015-07-03 17:29:00,
2015-07-03 12:34:00,77.0,62.9,29.13,North,-9999,-999.9,0.0,62,0.00,,,0.00,WUHU216HW,2015-07-03 17:34:00,
2015-07-03 12:39:00,77.0,62.9,29.13,North,-9999,-999.9,0.0,62,0.00,,,0.00,WUHU216HW,2015-07-03 17:39:00,
2015-07-03 12:44:00,77.0,63.2,29.13,North,-9999,-999.9,0.0,62,0.00,,,0.00,WUHU216HW,2015-07-03 17:44:00,
2015-07-03 12:49:00,77.0,63.2,29.13,North,-9999,-999.9,0.0,62,0.00,,,0.00,WUHU216HW,2015-07-03 17:49:00,
2015-07-03 12:54:00,78.6,64.9,29.13,North,-9999,-999.9,0.0,63,0.00,,,0.00,WUHU216HW,2015-07-03 17:54:00,
2015-07-03 12:59:00,78.8,65.1,29.13,North,-9999,-999.9,0.0,63,0.00,,,0.00,WUHU216HW,2015-07-03 17:59:00,
2015-07-03 13:04:00,78.8,65.1,29.13,North,-9999,-999.9,0.0,63,0.00,,,0.00,WUHU216HW,2015-07-03 18:04:00,
2015-07-03 13:09:00,78.8,65.1,29.13,North,-9999,-999.9,0.0,63,0.00,,,0.00,WUHU216HW,2015-07-03 18:09:00,
2015-07-03 13:14:00,78.8,65.1,29.13,North,-9999,-999.9,0.0,63,0.00,,,0.00,WUHU216HW,2015-07-03 18:14:00,
2015-07-03 13:51:00,0.0,0.0,29.12,North,-9999,-999.9,0.0,62,0.00,,,0.00,WUHU216HW,2015-07-03 18:51:00,
2015-07-03 13:56:00,0.0,0.0,29.13,North,-9999,-999.9,0.0,62,0.00,,,0.00,WUHU216HW,2015-07-03 18:56:00,
2015-07-03 14:01:00,0.0,0.0,29.13,North,-9999,-999.9,0.0,63,0.00,,,0.00,WUHU216HW,2015-07-03 19:01:00,
2015-07-03 14:11:00,0.0,0.0,29.13,North,-9999,-999.9,0.0,63,0.00,,,0.00,WUHU216HW,2015-07-03 19:11:00,
2015-07-03 14:16:00,0.0,0.0,29.13,North,-9999,-999.9,0.0,63,0.00,,,0.00,WUHU216HW,2015-07-03 19:16:00,
2015-07-03 15:02:00,80.4,65.7,29.12,North,-9999,-999.9,0.0,61,0.00,,,0.00,WUHU216HW,2015-07-03 20:02:00,
2015-07-03 15:07:00,80.6,65.4,29.12,North,-9999,-999.9,0.0,60,0.00,,,0.00,WUHU216HW,2015-07-03 20:07:00,
2015-07-03 15:12:00,80.9,65.8,29.12,North,-9999,-999.9,0.0,60,0.00,,,0.00,WUHU216HW,2015-07-03 20:12:00,
2015-07-03 15:17:00,81.3,65.6,29.12,North,-9999,-999.9,0.0,59,0.00,,,0.00,WUHU216HW,2015-07-03 20:17:00,
2015-07-03 15:22:00,81.3,65.6,29.12,North,-9999,-999.9,0.0,59,0.00,,,0.00,WUHU216HW,2015-07-03 20:22:00,
2015-07-03 15:27:00,81.5,65.7,29.12,North,-9999,-999.9,0.0,59,0.00,,,0.00,WUHU216HW,2015-07-03 20:27:00,
2015-07-03 15:32:00,81.5,65.2,29.12,North,-9999,-999.9,0.0,58,0.00,,,0.00,WUHU216HW,2015-07-03 20:32:00,
2015-07-03 15:38:00,81.3,65.0,29.12,North,-9999,-999.9,0.0,58,0.00,,,0.00,WUHU216HW,2015-07-03 20:38:00,
2015-07-03 15:43:00,81.1,64.9,29.12,North,-9999,-999.9,0.0,58,0.00,,,0.00,WUHU216HW,2015-07-03 20:43:00,
2015-07-03 15:48:00,80.9,64.7,29.12,North,-9999,-999.9,0.0,58,0.00,,,0.00,WUHU216HW,2015-07-03 20:48:00,
2015-07-03 15:53:00,80.9,64.7,29.12,North,-9999,-999.9,0.0,58,0.00,,,0.00,WUHU216HW,2015-07-03 20:53:00,
2015-07-03 15:58:00,81.1,64.9,29.12,North,-9999,-999.9,0.0,58,0.00,,,0.00,WUHU216HW,2015-07-03 20:58:00,
2015-07-03 16:03:00,81.1,64.9,29.12,North,-9999,-999.9,0.0,58,0.00,,,0.00,WUHU216HW,2015-07-03 21:03:00,
2015-07-03 16:08:00,81.3,65.0,29.12,North,-9999,-999.9,0.0,58,0.00,,,0.00,WUHU216HW,2015-07-03 21:08:00,
2015-07-03 16:13:00,81.3,64.5,29.12,North,-9999,-999.9,0.0,57,0.00,,,0.00,WUHU216HW,2015-07-03 21:13:00,
2015-07-03 16:18:00,81.1,64.4,29.12,North,-9999,-999.9,0.0,57,0.00,,,0.00,WUHU216HW,2015-07-03 21:18:00,
2015-07-03 16:23:00,80.6,63.9,29.12,North,-9999,-999.9,0.0,57,0.00,,,0.00,WUHU216HW,2015-07-03 21:23:00,
2015-07-03 16:28:00,80.4,64.2,29.11,North,-9999,-999.9,0.0,58,0.00,,,0.00,WUHU216HW,2015-07-03 21:28:00,
2015-07-03 16:34:00,80.4,64.2,29.11,North,-9999,-999.9,0.0,58,0.00,,,0.00,WUHU216HW,2015-07-03 21:34:00,
2015-07-03 16:39:00,80.4,63.7,29.11,North,-9999,-999.9,0.0,57,0.00,,,0.00,WUHU216HW,2015-07-03 21:39:00,
2015-07-03 16:44:00,80.6,63.9,29.11,North,-9999,-999.9,0.0,57,0.00,,,0.00,WUHU216HW,2015-07-03 21:44:00,